createdAt,value
2024-03-24T00:11:58.932Z,5
2024-03-24T00:24:29.046Z,4.8
2024-03-24T00:29:29.246Z,4.6
2024-03-24T00:31:59.148Z,4.6
2024-03-24T00:41:59.224Z,4.4
2024-03-24T00:44:29.273Z,4.4
2024-03-24T00:51:59.311Z,4.4
2024-03-24T00:54:29.348Z,4.4
2024-03-24T01:19:32.925Z,4.5
2024-03-24T01:21:59.697Z,4.5
2024-03-24T01:24:29.724Z,4.6
2024-03-24T01:26:59.642Z,4.5
2024-03-24T01:29:29.738Z,4.6
2024-03-24T01:34:29.743Z,4.6
2024-03-24T01:36:59.752Z,4.6
2024-03-24T01:41:59.861Z,4.69
2024-03-24T01:44:29.824Z,4.69
2024-03-24T01:51:59.899Z,4.6
2024-03-24T01:54:29.914Z,4.69
2024-03-24T01:56:59.942Z,4.69
2024-03-24T02:04:30.007Z,4.69
2024-03-24T02:07:00.038Z,4.69
2024-03-24T02:19:30.161Z,4.9
2024-03-24T02:22:00.183Z,5
2024-03-24T02:24:30.209Z,5
2024-03-24T02:29:30.251Z,5.1
2024-03-24T02:32:00.280Z,5.1
2024-03-24T02:34:30.300Z,5
2024-03-24T02:37:00.336Z,5
2024-03-24T02:39:30.343Z,5.1
2024-03-24T02:42:00.417Z,5.1
2024-03-24T02:44:30.393Z,5.2
2024-03-24T02:54:30.489Z,5.3
2024-03-24T02:57:00.522Z,5.2
2024-03-24T03:04:30.590Z,5.4
2024-03-24T03:19:30.720Z,5.2
2024-03-24T03:22:00.743Z,5.2
2024-03-24T03:24:30.771Z,5.2
2024-03-24T03:32:00.834Z,5.2
2024-03-24T03:34:30.865Z,5.2
2024-03-24T03:47:00.994Z,4.6
2024-03-24T03:49:31.003Z,4.6
2024-03-24T03:54:31.058Z,4.5
2024-03-24T03:57:01.121Z,4.5
2024-03-24T03:59:31.102Z,4.5
2024-03-24T04:02:01.121Z,4.4
2024-03-24T04:04:31.177Z,4.5
2024-03-24T04:07:01.173Z,4.4
2024-03-24T04:09:31.220Z,4.4
2024-03-24T04:17:01.291Z,4.4
2024-03-24T04:19:31.297Z,4.4
2024-03-24T04:24:31.345Z,4.4
2024-03-24T04:27:05.212Z,4.4
2024-03-24T04:29:31.391Z,4.4
2024-03-24T04:34:31.440Z,4.3
2024-03-24T04:37:01.459Z,4.3
2024-03-24T04:39:31.482Z,4.3
2024-03-24T04:42:01.521Z,4.3
2024-03-24T04:49:31.575Z,4.3
2024-03-24T04:52:01.662Z,4.3
2024-03-24T04:57:01.666Z,4.3
2024-03-24T04:59:31.674Z,4.19
2024-03-24T05:04:31.730Z,4.19
2024-03-24T05:07:01.756Z,4.19
2024-03-24T05:09:31.783Z,4.1
2024-03-24T05:12:01.797Z,4.19
2024-03-24T05:19:31.863Z,4.1
2024-03-24T05:24:31.932Z,4.1
2024-03-24T05:27:01.951Z,4.19
2024-03-24T05:32:01.990Z,4.19
2024-03-24T05:34:32.020Z,4.3
2024-03-24T05:37:02.035Z,4.3
2024-03-24T05:52:02.198Z,4.19
2024-03-24T05:57:02.236Z,4.19
2024-03-24T05:59:32.262Z,4.1
2024-03-24T06:02:02.290Z,4.19
2024-03-24T06:27:02.522Z,4.3
2024-03-24T06:29:32.550Z,4.3
2024-03-24T06:32:02.570Z,4.3
2024-03-24T06:42:02.671Z,4.5
2024-03-24T06:52:02.755Z,6.6
2024-03-24T07:04:32.880Z,6.7
2024-03-24T07:14:32.975Z,5.1
2024-03-24T07:24:33.064Z,7
2024-03-24T07:27:03.083Z,6.6
2024-03-24T07:29:33.115Z,6.1
2024-03-24T07:34:33.159Z,5.9
2024-03-24T07:44:40.269Z,5.9
2024-03-24T07:49:33.307Z,6.2
2024-03-24T07:52:03.328Z,6.3
2024-03-24T07:59:33.397Z,6.6
2024-03-24T08:04:33.440Z,6.6
2024-03-24T08:07:03.478Z,6.4
2024-03-24T08:14:33.541Z,6.7
2024-03-24T08:22:03.607Z,7
2024-03-24T08:24:33.631Z,6.9
2024-03-24T08:27:03.654Z,7
2024-03-24T08:32:03.731Z,6.9
2024-03-24T08:39:33.786Z,6.6
2024-03-24T08:42:03.808Z,6.4
2024-03-24T08:44:33.821Z,6.3
2024-03-24T08:47:03.845Z,6.1
2024-03-24T08:52:03.900Z,6.3
2024-03-24T09:02:03.983Z,6.4
2024-03-24T09:04:34.018Z,6.5
2024-03-24T09:09:34.065Z,6.6
2024-03-24T09:12:04.086Z,6.5
2024-03-24T09:14:34.106Z,6.5
2024-03-24T09:19:34.164Z,6.1
2024-03-24T09:24:34.216Z,5.8
2024-03-24T09:29:34.255Z,5.7
2024-03-24T09:34:34.302Z,5.8
2024-03-24T09:39:34.350Z,5.8
2024-03-24T09:42:04.395Z,5.5
2024-03-24T09:54:34.497Z,5.2
2024-03-24T09:57:04.537Z,5.4
2024-03-24T10:02:04.570Z,5.6
2024-03-24T10:04:34.592Z,5.5
2024-03-24T10:14:34.693Z,5.9
2024-03-24T10:17:04.709Z,6
2024-03-24T10:19:34.743Z,6.2
2024-03-24T10:27:04.803Z,6.7
2024-03-24T10:29:34.824Z,8.2
2024-03-24T10:32:06.732Z,8.2
2024-03-24T10:34:34.879Z,7.3
2024-03-24T10:37:04.890Z,7.5
2024-03-24T10:39:34.919Z,7.6
2024-03-24T10:49:35.007Z,7.6
2024-03-24T10:54:35.049Z,7.7
2024-03-24T10:57:05.079Z,7.1
2024-03-24T10:59:35.105Z,7.4
2024-03-24T11:12:05.218Z,6.9
2024-03-24T11:17:05.274Z,7.4
2024-03-24T11:19:35.320Z,7
2024-03-24T11:24:36.225Z,6.9
2024-03-24T11:39:35.485Z,7.4
2024-03-24T11:47:05.566Z,8.3
2024-03-24T11:54:35.625Z,8.8
2024-03-24T11:57:05.667Z,9.3
2024-03-24T11:59:37.832Z,9.39
2024-03-24T12:04:35.726Z,7.9
2024-03-24T12:09:35.765Z,6.8
2024-03-24T12:17:07.392Z,6.9
2024-03-24T12:19:35.863Z,7.7
2024-03-24T12:22:05.892Z,7.6
2024-03-24T12:24:35.910Z,7.7
2024-03-24T12:34:36.008Z,7.5
2024-03-24T12:37:06.032Z,7
2024-03-24T12:39:36.061Z,6.8
2024-03-24T12:42:06.073Z,6.6
2024-03-24T12:47:06.133Z,6.5
2024-03-24T12:54:36.201Z,6.7
2024-03-24T12:57:06.217Z,6.8
2024-03-24T13:02:06.266Z,8.39
2024-03-24T13:04:36.302Z,7.1
2024-03-24T13:07:06.325Z,7.2
2024-03-24T13:09:36.345Z,6.9
2024-03-24T13:12:06.371Z,6.8
2024-03-24T13:27:06.507Z,7.5
2024-03-24T13:37:06.608Z,7.5
2024-03-24T13:42:06.654Z,8
2024-03-24T13:44:36.699Z,7.9
2024-03-24T13:59:36.823Z,6.7
2024-03-24T14:02:06.842Z,6.7
2024-03-24T14:04:36.900Z,7
2024-03-24T14:09:36.915Z,7.1
2024-03-24T14:17:06.984Z,8.2
2024-03-24T14:19:37.018Z,7.8
2024-03-24T14:27:07.079Z,7.1
2024-03-24T14:54:37.348Z,6.9
2024-03-24T14:57:07.367Z,7
2024-03-24T15:02:07.414Z,7
2024-03-24T15:07:07.464Z,6.8
2024-03-24T15:09:37.483Z,6.6
2024-03-24T15:14:37.531Z,6.6
2024-03-24T15:34:37.746Z,6.8
2024-03-24T15:39:37.779Z,6.8
2024-03-24T15:47:07.886Z,6.6
2024-03-24T15:49:37.912Z,6.6
2024-03-24T15:52:07.895Z,6.5
2024-03-24T15:54:37.921Z,6.5
2024-03-24T15:57:07.951Z,6.4
2024-03-24T15:59:37.966Z,6.4
2024-03-24T16:12:08.082Z,6.6
2024-03-24T16:17:08.131Z,7.1
2024-03-24T16:22:08.183Z,7.9
2024-03-24T16:32:08.287Z,6.8
2024-03-24T16:37:08.330Z,6.7
2024-03-24T16:39:38.345Z,6.4
2024-03-24T16:49:38.440Z,6.6
2024-03-24T16:52:08.462Z,6.7
2024-03-24T17:02:08.571Z,6.8
2024-03-24T17:14:38.685Z,6.3
2024-03-24T17:17:08.716Z,6.4
2024-03-24T17:22:08.759Z,6.4
2024-03-24T17:39:38.913Z,6.2
2024-03-24T17:44:38.964Z,6.1
2024-03-24T17:49:39.017Z,6.1
2024-03-24T17:57:09.080Z,6.1
2024-03-24T18:02:09.171Z,6
2024-03-24T18:04:39.200Z,6
2024-03-24T18:12:09.222Z,5.9
2024-03-24T18:17:09.263Z,5.9
2024-03-24T18:19:39.303Z,5.8
2024-03-24T18:24:39.333Z,5.7
2024-03-24T18:27:09.366Z,5.8
2024-03-24T18:34:39.435Z,5.6
2024-03-24T18:37:09.447Z,5.7
2024-03-24T18:42:09.493Z,5.6
2024-03-24T18:52:09.582Z,5.6
2024-03-24T18:59:42.165Z,5.5
2024-03-24T19:04:39.710Z,5.6
2024-03-24T19:07:09.730Z,5.6
2024-03-24T19:09:39.794Z,5.6
2024-03-24T19:14:39.798Z,5.6
2024-03-24T19:19:39.858Z,5.4
2024-03-24T19:34:39.990Z,5.5
2024-03-24T19:37:10.006Z,5.6
2024-03-24T19:39:40.022Z,5.6
2024-03-24T19:47:10.105Z,5.5
2024-03-24T19:52:10.150Z,5.4
2024-03-24T19:54:41.094Z,5.4
2024-03-24T19:59:40.226Z,5.3
2024-03-24T20:02:10.246Z,5.2
2024-03-24T20:04:40.270Z,5.2
2024-03-24T20:32:10.536Z,4.8
2024-03-24T20:37:10.575Z,4.9
2024-03-24T20:39:40.643Z,4.9
2024-03-24T20:44:40.646Z,4.9
2024-03-24T20:52:10.717Z,5
2024-03-24T20:54:40.740Z,5
2024-03-24T20:59:40.777Z,5
2024-03-24T21:02:10.802Z,4.9
2024-03-24T21:04:40.827Z,4.9
2024-03-24T21:07:10.846Z,4.9
2024-03-24T21:12:10.909Z,4.69
2024-03-24T21:14:40.927Z,4.69
2024-03-24T21:17:10.940Z,4.69
2024-03-24T21:27:11.050Z,4.69
2024-03-24T21:32:11.083Z,4.8
2024-03-24T21:37:11.136Z,4.9
2024-03-24T21:42:11.182Z,4.9
2024-03-24T21:44:41.203Z,4.9
2024-03-24T21:47:13.271Z,4.9
2024-03-24T21:52:11.280Z,4.9
2024-03-24T21:57:11.317Z,5
2024-03-24T21:59:41.377Z,5
2024-03-24T22:04:41.389Z,4.9
2024-03-24T22:14:41.486Z,5
2024-03-24T22:17:11.508Z,5.1
2024-03-24T22:19:42.747Z,5.1
2024-03-24T22:24:41.579Z,5.1
2024-03-24T22:27:11.599Z,5.1
2024-03-24T22:34:41.670Z,5
2024-03-24T22:39:41.722Z,5
2024-03-24T22:44:41.777Z,5.1
2024-03-24T22:47:11.783Z,5
2024-03-24T22:54:41.859Z,5
2024-03-24T22:57:11.882Z,4.9
2024-03-24T23:07:11.985Z,5
2024-03-24T23:12:12.024Z,5
2024-03-24T23:19:42.097Z,5
2024-03-24T23:22:12.122Z,4.9
2024-03-24T23:32:12.216Z,4.9
2024-03-24T23:37:12.263Z,4.69
2024-03-24T23:39:42.285Z,4.6
2024-03-24T23:44:42.331Z,4.6
2024-03-24T23:47:12.354Z,4.4
2024-03-24T23:49:42.383Z,4.4
2024-03-24T23:52:12.400Z,4.4
2024-03-24T23:59:42.503Z,4.4
